Time;durP1;ratioP1;P1;durP2;ratioP2;P2;SDS_P1;SDS_P2;PMS_P1;PMS_P2;Temp;Humidity;BMP_temperature;BMP_pressure;BME280_temperature;BME280_humidity;BME280_pressure;Samples;Min_cycle;Max_cycle;Signal;HPM_P1;HPM_P2
2021/10/07 00:01:31;;;;;;;8.83;6.93;;;;;;;;;;5054834;28;20223;-73
2021/10/07 00:03:59;;;;;;;9.43;5.93;;;;;;;;;;5055310;28;20276;-73
2021/10/07 00:06:25;;;;;;;12.53;7.93;;;;;;;;;;5056861;28;20231;-73
2021/10/07 00:08:52;;;;;;;10.80;7.53;;;;;;;;;;5055134;28;20219;-73
2021/10/07 00:11:20;;;;;;;11.87;7.93;;;;;;;;;;5056349;28;20220;-73
2021/10/07 00:13:46;;;;;;;9.70;7.57;;;;;;;;;;5054683;28;20216;-73
2021/10/07 00:16:13;;;;;;;8.00;6.17;;;;;;;;;;5054698;28;20215;-73
2021/10/07 00:18:41;;;;;;;11.20;8.20;;;;;;;;;;5054465;28;20567;-73
2021/10/07 00:21:08;;;;;;;12.43;7.97;;;;;;;;;;5054375;28;20244;-72
2021/10/07 00:23:39;;;;;;;14.87;8.17;;;;;;;;;;5054564;28;20608;-73
2021/10/07 00:26:06;;;;;;;7.63;6.10;;;;;;;;;;5054102;28;20554;-72
2021/10/07 00:28:34;;;;;;;10.90;7.57;;;;;;;;;;5053714;28;20215;-72
2021/10/07 00:31:02;;;;;;;7.90;4.97;;;;;;;;;;5052819;28;20223;-72
2021/10/07 00:33:34;;;;;;;7.23;6.07;;;;;;;;;;5056230;28;20226;-73
2021/10/07 00:36:11;;;;;;;8.40;6.77;;;;;;;;;;5057084;28;20256;-72
2021/10/07 00:41:21;;;;;;;10.67;6.90;;;;;;;;;;5054780;28;20285;-72
2021/10/07 00:43:49;;;;;;;7.77;5.80;;;;;;;;;;5054159;28;20615;-72
2021/10/07 00:46:15;;;;;;;9.77;6.63;;;;;;;;;;5055101;28;20213;-72
2021/10/07 00:48:42;;;;;;;6.73;6.00;;;;;;;;;;5052155;28;20277;-72
2021/10/07 00:51:08;;;;;;;8.87;6.60;;;;;;;;;;5054498;28;20298;-72
2021/10/07 00:53:35;;;;;;;8.47;6.33;;;;;;;;;;5053111;28;20293;-73
2021/10/07 00:56:02;;;;;;;10.40;6.67;;;;;;;;;;5053456;28;21084;-72
2021/10/07 00:58:28;;;;;;;9.27;6.80;;;;;;;;;;5055724;28;20213;-73
2021/10/07 01:00:56;;;;;;;9.10;7.07;;;;;;;;;;5056477;28;20287;-73
2021/10/07 01:03:22;;;;;;;9.47;8.10;;;;;;;;;;5053625;28;20276;-72
2021/10/07 01:05:49;;;;;;;11.63;7.70;;;;;;;;;;5053165;28;20309;-73
2021/10/07 01:08:16;;;;;;;9.57;6.43;;;;;;;;;;5054010;28;20216;-73
2021/10/07 01:10:42;;;;;;;10.17;7.50;;;;;;;;;;5056673;28;20254;-73
2021/10/07 01:13:12;;;;;;;9.47;8.03;;;;;;;;;;5054592;28;20292;-73
2021/10/07 01:15:38;;;;;;;12.00;7.83;;;;;;;;;;5054143;28;20695;-73
2021/10/07 01:18:06;;;;;;;12.07;8.53;;;;;;;;;;5055029;28;20215;-73
2021/10/07 01:20:34;;;;;;;10.03;7.77;;;;;;;;;;5056891;28;20290;-73
2021/10/07 01:23:00;;;;;;;11.93;7.33;;;;;;;;;;5058700;28;20579;-73
2021/10/07 01:25:32;;;;;;;9.77;7.80;;;;;;;;;;5059545;28;20639;-73
2021/10/07 01:27:59;;;;;;;8.40;7.07;;;;;;;;;;5058571;28;20887;-73
2021/10/07 01:30:26;;;;;;;7.97;7.03;;;;;;;;;;5057565;28;20221;-73
2021/10/07 01:32:56;;;;;;;10.37;7.77;;;;;;;;;;5058834;28;20767;-74
2021/10/07 01:35:22;;;;;;;10.90;8.60;;;;;;;;;;5057563;28;20678;-74
2021/10/07 01:37:50;;;;;;;11.30;9.10;;;;;;;;;;5060636;28;20211;-74
2021/10/07 01:40:17;;;;;;;11.97;8.23;;;;;;;;;;5060465;28;20218;-74
2021/10/07 01:42:44;;;;;;;10.20;8.13;;;;;;;;;;5059760;28;20600;-73
2021/10/07 01:45:12;;;;;;;10.57;9.10;;;;;;;;;;5059089;28;20245;-73
2021/10/07 01:47:39;;;;;;;11.77;8.93;;;;;;;;;;5058515;28;20220;-73
2021/10/07 01:50:08;;;;;;;13.90;10.40;;;;;;;;;;5057334;28;20686;-73
2021/10/07 01:52:35;;;;;;;9.57;8.57;;;;;;;;;;5057721;28;20733;-73
2021/10/07 01:55:03;;;;;;;12.67;9.77;;;;;;;;;;5059149;28;20229;-73
2021/10/07 01:57:30;;;;;;;12.37;9.50;;;;;;;;;;5058052;28;20653;-73
2021/10/07 01:59:56;;;;;;;11.90;10.00;;;;;;;;;;5058218;28;20246;-73
2021/10/07 02:02:22;;;;;;;13.10;10.00;;;;;;;;;;5056308;28;20214;-73
2021/10/07 02:04:49;;;;;;;11.70;8.70;;;;;;;;;;5056927;28;20242;-73
2021/10/07 02:07:15;;;;;;;12.30;9.07;;;;;;;;;;5056181;28;20212;-73
2021/10/07 02:09:41;;;;;;;11.47;8.60;;;;;;;;;;5057517;28;20285;-73
2021/10/07 02:12:09;;;;;;;14.60;9.23;;;;;;;;;;5057023;28;20232;-73
2021/10/07 02:14:36;;;;;;;11.70;8.40;;;;;;;;;;5056856;28;20258;-72
2021/10/07 02:17:02;;;;;;;12.80;8.77;;;;;;;;;;5057787;28;20219;-72
2021/10/07 02:19:29;;;;;;;14.53;8.23;;;;;;;;;;5058065;28;20864;-72
2021/10/07 02:21:55;;;;;;;14.60;8.70;;;;;;;;;;5059026;28;20208;-71
2021/10/07 02:24:22;;;;;;;14.20;9.53;;;;;;;;;;5054412;28;20295;-72
2021/10/07 02:26:48;;;;;;;12.77;8.93;;;;;;;;;;5059157;28;20216;-71
2021/10/07 02:29:16;;;;;;;14.50;8.53;;;;;;;;;;5056250;28;20223;-71
2021/10/07 02:31:42;;;;;;;8.10;7.27;;;;;;;;;;5054872;28;20212;-72
2021/10/07 02:34:09;;;;;;;11.80;9.07;;;;;;;;;;5055849;28;20239;-72
2021/10/07 02:36:35;;;;;;;13.03;8.07;;;;;;;;;;5058230;28;20281;-72
2021/10/07 02:39:02;;;;;;;14.83;9.33;;;;;;;;;;5058056;28;20608;-72
2021/10/07 02:41:28;;;;;;;12.80;9.50;;;;;;;;;;5057483;28;21196;-72
2021/10/07 02:43:54;;;;;;;11.93;9.23;;;;;;;;;;5056091;28;20215;-73
2021/10/07 02:46:22;;;;;;;9.37;7.60;;;;;;;;;;5056372;28;20215;-72
2021/10/07 02:48:48;;;;;;;12.13;9.07;;;;;;;;;;5057528;28;20652;-72
2021/10/07 02:51:15;;;;;;;17.57;10.40;;;;;;;;;;5057517;28;20634;-72
2021/10/07 02:53:41;;;;;;;11.73;10.03;;;;;;;;;;5056410;28;20293;-72
2021/10/07 02:56:08;;;;;;;9.27;8.30;;;;;;;;;;5059277;28;20266;-72
2021/10/07 02:58:36;;;;;;;9.03;7.80;;;;;;;;;;5055241;28;20216;-72
2021/10/07 03:01:03;;;;;;;9.90;8.27;;;;;;;;;;5057578;28;20630;-72
2021/10/07 03:03:31;;;;;;;8.90;7.50;;;;;;;;;;5057129;28;20207;-72
2021/10/07 03:05:58;;;;;;;12.07;8.90;;;;;;;;;;5056887;28;20284;-72
2021/10/07 03:08:27;;;;;;;12.10;9.23;;;;;;;;;;5057113;28;20293;-73
2021/10/07 03:10:54;;;;;;;12.77;9.53;;;;;;;;;;5056543;28;20211;-72
2021/10/07 03:13:20;;;;;;;17.90;9.20;;;;;;;;;;5056072;28;20251;-72
2021/10/07 03:15:47;;;;;;;11.97;8.93;;;;;;;;;;5057053;28;20211;-72
2021/10/07 03:18:13;;;;;;;30.77;11.70;;;;;;;;;;5058205;28;20715;-72
2021/10/07 03:20:41;;;;;;;83.13;19.40;;;;;;;;;;5055174;28;20892;-72
2021/10/07 03:23:07;;;;;;;57.57;13.10;;;;;;;;;;5054662;28;20252;-72
2021/10/07 03:25:34;;;;;;;29.83;11.37;;;;;;;;;;5055871;28;20219;-72
2021/10/07 03:28:00;;;;;;;59.47;15.80;;;;;;;;;;5056070;28;20214;-72
2021/10/07 03:30:27;;;;;;;99.70;18.57;;;;;;;;;;5056370;28;20214;-72
2021/10/07 03:32:53;;;;;;;15.00;10.43;;;;;;;;;;5056542;28;20239;-72
2021/10/07 03:35:20;;;;;;;36.23;17.50;;;;;;;;;;5055587;28;20286;-72
2021/10/07 03:37:47;;;;;;;21.47;13.63;;;;;;;;;;5056867;28;20219;-72
2021/10/07 03:40:14;;;;;;;14.33;10.60;;;;;;;;;;5056049;28;20611;-72
2021/10/07 03:42:40;;;;;;;14.07;10.50;;;;;;;;;;5053547;28;20215;-72
2021/10/07 03:45:08;;;;;;;10.03;8.97;;;;;;;;;;5055048;28;20218;-73
2021/10/07 03:47:34;;;;;;;16.47;13.43;;;;;;;;;;5055201;28;20248;-72
2021/10/07 03:50:00;;;;;;;13.87;11.43;;;;;;;;;;5054151;28;20778;-72
2021/10/07 03:52:27;;;;;;;10.43;9.33;;;;;;;;;;5055294;28;20615;-72
2021/10/07 03:54:56;;;;;;;14.57;11.60;;;;;;;;;;5056123;28;20238;-72
2021/10/07 03:57:23;;;;;;;12.07;9.20;;;;;;;;;;5055757;28;20227;-72
2021/10/07 03:59:50;;;;;;;11.20;8.37;;;;;;;;;;5055243;28;20222;-72
2021/10/07 04:02:17;;;;;;;12.77;11.47;;;;;;;;;;5054952;28;20219;-72
2021/10/07 04:04:43;;;;;;;15.67;11.87;;;;;;;;;;5054572;28;20572;-72
2021/10/07 04:07:10;;;;;;;12.47;11.37;;;;;;;;;;5054390;28;20212;-72
2021/10/07 04:09:36;;;;;;;11.90;10.70;;;;;;;;;;5055078;28;20212;-72
2021/10/07 04:12:04;;;;;;;14.27;12.50;;;;;;;;;;5056099;28;20242;-72
2021/10/07 04:14:31;;;;;;;14.07;12.70;;;;;;;;;;5054894;28;21270;-72
2021/10/07 04:16:57;;;;;;;14.03;12.53;;;;;;;;;;5055023;28;20596;-72
2021/10/07 04:19:23;;;;;;;15.43;13.80;;;;;;;;;;5053617;28;20245;-72
2021/10/07 04:21:50;;;;;;;12.67;11.40;;;;;;;;;;5055836;28;20270;-72
2021/10/07 04:24:17;;;;;;;14.53;11.70;;;;;;;;;;5054877;28;20214;-72
2021/10/07 04:26:43;;;;;;;109.10;26.23;;;;;;;;;;5053612;28;20211;-72
2021/10/07 04:29:11;;;;;;;30.43;17.83;;;;;;;;;;5055935;28;20215;-72
2021/10/07 04:31:38;;;;;;;17.35;15.57;;;;;;;;;;5053561;28;20443;-74
2021/10/07 04:34:05;;;;;;;33.60;20.53;;;;;;;;;;5052338;28;20226;-74
2021/10/07 04:36:31;;;;;;;31.97;20.03;;;;;;;;;;5053589;28;20228;-74
2021/10/07 04:38:58;;;;;;;59.60;21.70;;;;;;;;;;5055658;28;20673;-74
2021/10/07 04:41:24;;;;;;;67.57;20.60;;;;;;;;;;5054438;28;20207;-74
2021/10/07 04:43:51;;;;;;;39.23;17.17;;;;;;;;;;5056590;28;20256;-74
2021/10/07 04:46:21;;;;;;;39.30;15.47;;;;;;;;;;5055114;28;20207;-74
2021/10/07 04:48:48;;;;;;;68.83;16.87;;;;;;;;;;5055720;28;20220;-74
2021/10/07 04:51:14;;;;;;;39.80;16.63;;;;;;;;;;5055874;28;20637;-74
2021/10/07 04:53:41;;;;;;;20.77;12.17;;;;;;;;;;5053900;28;20651;-74
2021/10/07 04:56:07;;;;;;;61.57;18.27;;;;;;;;;;5053709;28;20273;-74
2021/10/07 04:58:34;;;;;;;82.10;19.23;;;;;;;;;;5054733;28;20211;-74
2021/10/07 05:01:01;;;;;;;24.83;14.13;;;;;;;;;;5054946;28;20733;-74
2021/10/07 05:03:29;;;;;;;60.10;17.63;;;;;;;;;;5053087;28;20294;-74
2021/10/07 05:05:55;;;;;;;184.23;25.63;;;;;;;;;;5055925;28;20570;-74
2021/10/07 05:08:22;;;;;;;175.73;37.47;;;;;;;;;;5053475;28;20218;-74
2021/10/07 05:10:48;;;;;;;324.80;47.60;;;;;;;;;;5055026;28;21103;-74
2021/10/07 05:13:15;;;;;;;63.93;21.13;;;;;;;;;;5055179;28;20250;-74
2021/10/07 05:15:41;;;;;;;113.27;22.33;;;;;;;;;;5053547;28;20221;-74
2021/10/07 05:18:07;;;;;;;31.97;16.73;;;;;;;;;;5052416;28;20217;-74
2021/10/07 05:20:36;;;;;;;81.60;24.07;;;;;;;;;;5055798;28;20230;-74
2021/10/07 05:23:03;;;;;;;160.33;40.00;;;;;;;;;;5055423;28;20211;-74
2021/10/07 05:25:30;;;;;;;132.93;32.47;;;;;;;;;;5055591;28;20230;-74
2021/10/07 05:27:56;;;;;;;95.30;21.13;;;;;;;;;;5054068;28;20218;-74
2021/10/07 05:30:23;;;;;;;86.67;21.33;;;;;;;;;;5052797;28;20264;-74
2021/10/07 05:32:49;;;;;;;118.97;23.63;;;;;;;;;;5055495;28;21235;-74
2021/10/07 05:35:15;;;;;;;75.63;14.40;;;;;;;;;;5053684;28;20235;-74
2021/10/07 05:37:43;;;;;;;124.03;24.97;;;;;;;;;;5053794;28;20267;-73
2021/10/07 05:40:11;;;;;;;374.00;47.60;;;;;;;;;;5052015;28;20259;-73
2021/10/07 05:42:37;;;;;;;183.17;35.80;;;;;;;;;;5054543;28;20211;-73
2021/10/07 05:45:06;;;;;;;64.47;23.60;;;;;;;;;;5053470;28;20293;-73
2021/10/07 05:47:33;;;;;;;166.53;33.27;;;;;;;;;;5054449;28;20238;-73
2021/10/07 05:49:59;;;;;;;91.53;23.67;;;;;;;;;;5052781;28;20242;-73
2021/10/07 05:52:27;;;;;;;107.23;32.73;;;;;;;;;;5053914;28;20215;-73
2021/10/07 05:54:54;;;;;;;80.40;21.33;;;;;;;;;;5052697;28;20286;-73
2021/10/07 05:57:21;;;;;;;168.93;29.17;;;;;;;;;;5052521;28;20214;-73
2021/10/07 05:59:47;;;;;;;254.80;37.77;;;;;;;;;;5052488;28;20211;-73
2021/10/07 06:02:14;;;;;;;273.87;40.97;;;;;;;;;;5054468;28;20264;-73
2021/10/07 06:04:40;;;;;;;107.30;30.97;;;;;;;;;;5053117;28;20230;-73
2021/10/07 06:07:06;;;;;;;165.60;33.63;;;;;;;;;;5052365;28;20226;-74
2021/10/07 06:09:33;;;;;;;194.13;32.23;;;;;;;;;;5053532;28;20208;-73
2021/10/07 06:12:00;;;;;;;85.20;24.57;;;;;;;;;;5056100;28;20759;-73
2021/10/07 06:14:27;;;;;;;42.80;20.83;;;;;;;;;;5056297;28;20234;-73
2021/10/07 06:16:54;;;;;;;23.20;17.73;;;;;;;;;;5055681;28;20284;-73
2021/10/07 06:19:22;;;;;;;19.43;15.20;;;;;;;;;;5054742;28;20211;-73
2021/10/07 06:21:49;;;;;;;20.53;17.80;;;;;;;;;;5054458;28;20222;-73
2021/10/07 06:24:16;;;;;;;23.10;18.83;;;;;;;;;;5054448;28;20753;-73
2021/10/07 06:26:42;;;;;;;14.47;12.97;;;;;;;;;;5055124;28;20645;-73
2021/10/07 06:29:11;;;;;;;28.93;18.60;;;;;;;;;;5054220;28;20310;-73
2021/10/07 06:31:38;;;;;;;81.00;23.93;;;;;;;;;;5057943;28;20222;-73
2021/10/07 06:34:06;;;;;;;77.60;25.97;;;;;;;;;;5054887;28;20303;-73
2021/10/07 06:36:33;;;;;;;201.67;33.33;;;;;;;;;;5055101;28;20230;-73
2021/10/07 06:38:59;;;;;;;135.60;34.37;;;;;;;;;;5056698;28;20217;-72
2021/10/07 06:41:25;;;;;;;146.37;26.47;;;;;;;;;;5054969;28;20264;-72
2021/10/07 06:43:52;;;;;;;176.27;31.80;;;;;;;;;;5055053;28;20275;-72
2021/10/07 06:46:20;;;;;;;92.93;20.37;;;;;;;;;;5054197;28;20264;-73
2021/10/07 06:48:46;;;;;;;70.67;22.30;;;;;;;;;;5052717;28;20211;-72
2021/10/07 06:51:14;;;;;;;62.50;30.17;;;;;;;;;;5054772;28;20767;-73
2021/10/07 06:53:41;;;;;;;37.07;25.73;;;;;;;;;;5055433;28;20918;-73
2021/10/07 06:56:08;;;;;;;44.73;30.13;;;;;;;;;;5052692;28;20219;-72
2021/10/07 06:58:35;;;;;;;19.70;17.47;;;;;;;;;;5055573;28;20223;-73
2021/10/07 07:01:01;;;;;;;32.00;24.17;;;;;;;;;;5056542;28;20258;-73
2021/10/07 07:03:29;;;;;;;21.10;18.77;;;;;;;;;;5053710;28;20209;-73
2021/10/07 07:05:55;;;;;;;20.30;18.13;;;;;;;;;;5053053;28;20296;-73
2021/10/07 07:08:22;;;;;;;22.60;19.47;;;;;;;;;;5053579;28;20218;-73
2021/10/07 07:10:49;;;;;;;20.67;17.73;;;;;;;;;;5053479;28;20258;-73
2021/10/07 07:13:16;;;;;;;22.20;15.97;;;;;;;;;;5052147;28;20275;-73
2021/10/07 07:15:42;;;;;;;15.17;13.57;;;;;;;;;;5052997;28;20228;-73
2021/10/07 07:18:09;;;;;;;14.10;12.70;;;;;;;;;;5052741;28;20303;-73
2021/10/07 07:20:37;;;;;;;15.67;14.00;;;;;;;;;;5053942;28;20231;-73
2021/10/07 07:23:08;;;;;;;19.23;16.50;;;;;;;;;;5054379;28;20212;-73
2021/10/07 07:25:34;;;;;;;20.60;15.80;;;;;;;;;;5054625;28;20213;-73
2021/10/07 07:28:01;;;;;;;18.73;16.83;;;;;;;;;;5054026;28;20271;-74
2021/10/07 07:30:27;;;;;;;16.00;14.40;;;;;;;;;;5054677;28;20221;-74
2021/10/07 07:32:54;;;;;;;17.60;15.37;;;;;;;;;;5056048;28;20602;-74
2021/10/07 07:35:20;;;;;;;17.97;14.90;;;;;;;;;;5054424;28;20251;-73
2021/10/07 07:37:48;;;;;;;15.23;12.07;;;;;;;;;;5055288;28;20220;-73
2021/10/07 07:40:14;;;;;;;16.30;14.70;;;;;;;;;;5053987;28;20208;-74
2021/10/07 07:42:40;;;;;;;13.63;12.33;;;;;;;;;;5055088;28;20312;-73
2021/10/07 07:45:08;;;;;;;12.40;11.17;;;;;;;;;;5054219;28;20209;-74
2021/10/07 07:47:35;;;;;;;13.33;12.00;;;;;;;;;;5054624;28;20245;-74
2021/10/07 07:50:02;;;;;;;14.10;12.73;;;;;;;;;;5053422;28;20236;-74
2021/10/07 07:52:28;;;;;;;12.23;11.10;;;;;;;;;;5051866;28;20278;-73
2021/10/07 07:54:56;;;;;;;11.90;10.70;;;;;;;;;;5055532;28;20635;-74
2021/10/07 07:57:22;;;;;;;11.57;10.00;;;;;;;;;;5053856;28;20213;-74
2021/10/07 07:59:49;;;;;;;11.83;10.37;;;;;;;;;;5054849;28;20224;-74
2021/10/07 08:02:15;;;;;;;13.80;11.93;;;;;;;;;;5054145;28;20632;-73
2021/10/07 08:04:42;;;;;;;13.37;11.83;;;;;;;;;;5054868;28;20243;-74
2021/10/07 08:07:09;;;;;;;13.50;10.30;;;;;;;;;;5054993;28;20553;-74
2021/10/07 08:09:38;;;;;;;11.97;10.60;;;;;;;;;;5054898;28;20824;-74
2021/10/07 08:12:06;;;;;;;13.87;11.50;;;;;;;;;;5055849;28;20245;-74
2021/10/07 08:14:33;;;;;;;13.27;11.03;;;;;;;;;;5052789;28;20275;-74
2021/10/07 08:17:01;;;;;;;14.73;13.10;;;;;;;;;;5054839;28;20558;-74
2021/10/07 08:19:27;;;;;;;13.20;10.23;;;;;;;;;;5055597;28;20233;-73
2021/10/07 08:21:54;;;;;;;15.57;12.00;;;;;;;;;;5052953;28;20675;-74
2021/10/07 08:24:22;;;;;;;14.57;11.93;;;;;;;;;;5054138;28;20209;-74
2021/10/07 08:26:49;;;;;;;12.47;10.77;;;;;;;;;;5055030;28;20228;-75
2021/10/07 08:29:16;;;;;;;13.10;11.03;;;;;;;;;;5054792;28;20697;-75
2021/10/07 08:31:43;;;;;;;13.67;11.60;;;;;;;;;;5054256;28;20210;-76
2021/10/07 08:34:10;;;;;;;12.40;10.90;;;;;;;;;;5050567;28;20271;-76
2021/10/07 08:36:42;;;;;;;12.17;10.60;;;;;;;;;;5053868;28;20237;-74
2021/10/07 08:39:09;;;;;;;14.33;9.53;;;;;;;;;;5053451;28;20324;-74
2021/10/07 08:41:36;;;;;;;14.87;9.20;;;;;;;;;;5055674;28;20302;-75
2021/10/07 08:44:03;;;;;;;12.27;8.73;;;;;;;;;;5053231;28;20359;-73
2021/10/07 08:46:31;;;;;;;11.87;9.50;;;;;;;;;;5052337;28;20357;-74
2021/10/07 08:48:59;;;;;;;10.03;8.87;;;;;;;;;;5052195;28;20663;-74
2021/10/07 08:51:25;;;;;;;9.70;7.80;;;;;;;;;;5054823;28;20234;-75
2021/10/07 08:53:52;;;;;;;8.57;6.63;;;;;;;;;;5054051;28;20264;-75
2021/10/07 08:56:20;;;;;;;9.70;7.80;;;;;;;;;;5056411;28;20288;-74
2021/10/07 08:58:46;;;;;;;6.70;6.10;;;;;;;;;;5058384;28;20240;-74
2021/10/07 09:01:36;;;;;;;7.90;7.10;;;;;;;;;;5053519;28;20244;-74
2021/10/07 09:04:16;;;;;;;6.73;6.13;;;;;;;;;;5055672;28;20210;-73
2021/10/07 09:06:45;;;;;;;6.47;5.80;;;;;;;;;;5055182;28;20310;-74
2021/10/07 09:09:12;;;;;;;14.23;4.93;;;;;;;;;;5053530;28;20572;-74
2021/10/07 09:11:38;;;;;;;5.23;4.77;;;;;;;;;;5055285;28;20236;-74
2021/10/07 09:14:07;;;;;;;5.33;4.83;;;;;;;;;;5053105;28;20637;-73
2021/10/07 09:16:34;;;;;;;5.27;4.57;;;;;;;;;;5053364;28;20330;-74
2021/10/07 09:19:16;;;;;;;8.00;4.73;;;;;;;;;;5053784;28;20263;-74
2021/10/07 09:21:43;;;;;;;6.70;5.07;;;;;;;;;;5054273;28;20684;-73
2021/10/07 09:24:34;;;;;;;4.67;3.93;;;;;;;;;;5054758;28;20644;-73
2021/10/07 09:27:03;;;;;;;5.37;4.87;;;;;;;;;;5054210;28;21170;-73
2021/10/07 09:29:32;;;;;;;5.33;4.20;;;;;;;;;;5051738;28;20218;-73
2021/10/07 09:31:59;;;;;;;4.30;3.90;;;;;;;;;;5053769;28;20225;-73
2021/10/07 09:34:38;;;;;;;4.97;4.57;;;;;;;;;;5052803;28;20213;-73
2021/10/07 09:37:16;;;;;;;8.00;4.33;;;;;;;;;;5052938;28;20217;-73
2021/10/07 09:39:47;;;;;;;5.27;4.07;;;;;;;;;;5054053;28;20274;-73
2021/10/07 09:42:17;;;;;;;4.50;4.10;;;;;;;;;;5053633;28;20267;-73
2021/10/07 09:44:57;;;;;;;4.50;4.13;;;;;;;;;;5058287;28;20286;-73
2021/10/07 09:47:28;;;;;;;4.53;4.17;;;;;;;;;;5055771;28;20219;-73
2021/10/07 09:50:09;;;;;;;4.20;3.80;;;;;;;;;;5054431;28;20241;-73
2021/10/07 09:52:36;;;;;;;3.50;3.30;;;;;;;;;;5057830;28;20210;-74
2021/10/07 09:55:09;;;;;;;4.77;3.50;;;;;;;;;;5057434;28;20221;-74
2021/10/07 09:57:48;;;;;;;22.27;4.37;;;;;;;;;;5058075;28;20210;-74
2021/10/07 10:00:14;;;;;;;36.83;5.50;;;;;;;;;;5058067;28;20221;-74
2021/10/07 10:02:41;;;;;;;9.83;4.03;;;;;;;;;;5057312;28;20218;-74
2021/10/07 10:05:10;;;;;;;5.40;2.53;;;;;;;;;;5058502;28;20242;-74
2021/10/07 10:07:36;;;;;;;5.20;2.47;;;;;;;;;;5057514;28;20294;-74
2021/10/07 10:10:03;;;;;;;8.53;3.03;;;;;;;;;;5056410;28;20268;-74
2021/10/07 10:12:30;;;;;;;3.83;3.17;;;;;;;;;;5058198;28;20590;-74
2021/10/07 10:14:57;;;;;;;11.27;4.00;;;;;;;;;;5056605;28;20215;-74
2021/10/07 10:17:23;;;;;;;5.80;3.37;;;;;;;;;;5055707;28;20751;-72
2021/10/07 10:19:52;;;;;;;3.13;2.77;;;;;;;;;;5056808;28;20633;-73
2021/10/07 10:22:22;;;;;;;2.60;2.40;;;;;;;;;;5056539;28;20295;-73
2021/10/07 10:24:49;;;;;;;35.80;4.53;;;;;;;;;;5055702;28;20221;-73
2021/10/07 10:27:16;;;;;;;5.17;3.37;;;;;;;;;;5056248;28;20612;-73
2021/10/07 10:29:43;;;;;;;3.87;3.50;;;;;;;;;;5056684;28;20259;-73
2021/10/07 10:32:12;;;;;;;8.17;3.10;;;;;;;;;;5056327;28;21267;-73
2021/10/07 10:34:41;;;;;;;5.63;2.80;;;;;;;;;;5056147;28;20222;-73
2021/10/07 10:37:07;;;;;;;4.00;3.20;;;;;;;;;;5056795;28;20428;-73
2021/10/07 10:39:39;;;;;;;3.67;3.03;;;;;;;;;;5056844;28;20219;-73
2021/10/07 10:42:07;;;;;;;5.33;3.53;;;;;;;;;;5057299;28;20209;-73
2021/10/07 10:44:37;;;;;;;3.53;3.23;;;;;;;;;;5056721;28;20221;-73
2021/10/07 10:47:22;;;;;;;5.17;3.13;;;;;;;;;;5057679;28;20749;-74
2021/10/07 10:50:10;;;;;;;4.90;3.10;;;;;;;;;;5056158;28;20691;-73
2021/10/07 10:52:41;;;;;;;2.37;2.17;;;;;;;;;;5057490;28;20215;-74
2021/10/07 10:55:11;;;;;;;3.00;2.80;;;;;;;;;;5055089;28;20232;-74
2021/10/07 10:57:40;;;;;;;7.23;3.57;;;;;;;;;;5058020;28;20310;-74
2021/10/07 11:00:19;;;;;;;6.27;3.67;;;;;;;;;;5055404;28;20217;-73
2021/10/07 11:02:46;;;;;;;5.27;4.13;;;;;;;;;;5057601;28;20679;-74
2021/10/07 11:05:17;;;;;;;4.20;3.80;;;;;;;;;;5055301;28;20314;-73
2021/10/07 11:07:45;;;;;;;4.10;3.80;;;;;;;;;;5054848;28;20296;-73
2021/10/07 11:10:17;;;;;;;6.60;3.60;;;;;;;;;;5055317;28;20214;-74
2021/10/07 11:12:48;;;;;;;6.87;3.57;;;;;;;;;;5054898;28;20233;-74
2021/10/07 11:15:15;;;;;;;4.00;3.70;;;;;;;;;;5056258;28;20229;-74
2021/10/07 11:17:43;;;;;;;5.90;2.97;;;;;;;;;;5056099;28;20603;-73
2021/10/07 11:20:12;;;;;;;3.40;2.93;;;;;;;;;;5055470;28;20279;-73
2021/10/07 11:22:38;;;;;;;9.13;2.73;;;;;;;;;;5055912;28;20279;-73
2021/10/07 11:25:07;;;;;;;5.20;3.47;;;;;;;;;;5056649;28;20610;-74
2021/10/07 11:27:37;;;;;;;3.53;2.90;;;;;;;;;;5054755;28;20222;-74
2021/10/07 11:30:07;;;;;;;3.63;2.73;;;;;;;;;;5056815;28;20549;-74
2021/10/07 11:32:33;;;;;;;4.13;2.80;;;;;;;;;;5055899;28;20218;-74
2021/10/07 11:35:01;;;;;;;3.53;2.93;;;;;;;;;;5054670;28;20234;-74
2021/10/07 11:37:43;;;;;;;3.57;2.87;;;;;;;;;;5056503;28;20233;-73
2021/10/07 11:40:22;;;;;;;8.63;2.70;;;;;;;;;;5053830;28;20696;-73
2021/10/07 11:42:50;;;;;;;7.27;2.80;;;;;;;;;;5055849;28;20218;-74
2021/10/07 11:45:22;;;;;;;5.83;3.10;;;;;;;;;;5055160;28;20217;-74
2021/10/07 11:47:51;;;;;;;6.27;2.93;;;;;;;;;;5056376;28;20215;-74
2021/10/07 11:50:18;;;;;;;4.03;3.17;;;;;;;;;;5053390;28;20230;-74
2021/10/07 11:52:45;;;;;;;6.30;3.50;;;;;;;;;;5054128;28;20279;-74
2021/10/07 11:55:12;;;;;;;4.03;3.37;;;;;;;;;;5055723;28;20214;-73
2021/10/07 11:57:49;;;;;;;9.10;4.03;;;;;;;;;;5053413;28;20316;-74
2021/10/07 12:00:32;;;;;;;4.60;3.10;;;;;;;;;;5054753;28;20228;-74
2021/10/07 12:03:09;;;;;;;4.83;3.10;;;;;;;;;;5055132;28;20255;-74
2021/10/07 12:05:36;;;;;;;4.07;3.00;;;;;;;;;;5053528;28;20237;-73
2021/10/07 12:08:03;;;;;;;6.40;2.80;;;;;;;;;;5052987;28;20278;-74
2021/10/07 12:10:34;;;;;;;3.00;2.50;;;;;;;;;;5053893;28;20844;-74
2021/10/07 12:13:14;;;;;;;3.10;2.70;;;;;;;;;;5053851;28;20241;-74
2021/10/07 12:15:44;;;;;;;2.87;2.57;;;;;;;;;;5053636;28;20256;-74
2021/10/07 12:18:11;;;;;;;3.17;2.77;;;;;;;;;;5054586;28;20221;-74
2021/10/07 12:20:38;;;;;;;3.53;3.10;;;;;;;;;;5053991;28;20319;-73
2021/10/07 12:23:07;;;;;;;4.63;3.37;;;;;;;;;;5054326;28;20218;-74
2021/10/07 12:25:41;;;;;;;3.73;3.23;;;;;;;;;;5054429;28;20853;-74
2021/10/07 12:28:15;;;;;;;6.03;2.93;;;;;;;;;;5053983;28;20224;-74
2021/10/07 12:30:50;;;;;;;9.57;2.80;;;;;;;;;;5054922;28;20214;-73
2021/10/07 12:33:17;;;;;;;2.90;2.60;;;;;;;;;;5054879;28;20214;-74
2021/10/07 12:36:01;;;;;;;2.53;2.33;;;;;;;;;;5054109;28;20234;-74
2021/10/07 12:38:28;;;;;;;6.67;2.20;;;;;;;;;;5054010;28;20260;-73
2021/10/07 12:40:58;;;;;;;3.47;2.80;;;;;;;;;;5052483;28;20684;-73
2021/10/07 12:43:28;;;;;;;38.00;4.77;;;;;;;;;;5053936;28;20223;-73
2021/10/07 12:46:07;;;;;;;2.90;2.03;;;;;;;;;;5052954;28;20704;-74
2021/10/07 12:48:48;;;;;;;9.60;2.70;;;;;;;;;;5055647;28;20307;-74
2021/10/07 12:51:14;;;;;;;2.33;2.00;;;;;;;;;;5052222;28;20707;-74
2021/10/07 12:53:42;;;;;;;2.43;2.07;;;;;;;;;;5054098;28;20213;-74
2021/10/07 12:56:10;;;;;;;4.27;3.00;;;;;;;;;;5053119;28;20783;-74
2021/10/07 12:58:52;;;;;;;2.40;2.13;;;;;;;;;;5053563;28;20267;-74
2021/10/07 13:01:21;;;;;;;4.57;2.57;;;;;;;;;;5052707;28;20212;-74
2021/10/07 13:03:48;;;;;;;3.70;1.90;;;;;;;;;;5053064;28;20244;-74
2021/10/07 13:06:30;;;;;;;9.97;3.27;;;;;;;;;;5053993;28;20283;-74
2021/10/07 13:08:58;;;;;;;3.70;2.00;;;;;;;;;;5050810;28;20237;-74
2021/10/07 13:11:25;;;;;;;7.63;2.90;;;;;;;;;;5051328;28;20207;-74
2021/10/07 13:13:52;;;;;;;29.00;3.63;;;;;;;;;;5051042;28;20836;-73
2021/10/07 13:16:19;;;;;;;9.70;2.17;;;;;;;;;;5051146;28;20297;-74
2021/10/07 13:18:46;;;;;;;2.63;1.83;;;;;;;;;;5058224;28;20494;-74
2021/10/07 13:21:12;;;;;;;3.60;2.10;;;;;;;;;;5056215;28;20370;-74
2021/10/07 13:23:39;;;;;;;2.50;2.30;;;;;;;;;;5060566;28;20240;-73
2021/10/07 13:26:07;;;;;;;3.07;2.60;;;;;;;;;;5059014;28;20213;-73
2021/10/07 13:28:34;;;;;;;16.70;2.70;;;;;;;;;;5059741;28;20224;-74
2021/10/07 13:31:02;;;;;;;2.67;2.07;;;;;;;;;;5057001;28;20561;-73
2021/10/07 13:33:28;;;;;;;3.03;2.20;;;;;;;;;;5059011;28;20282;-73
2021/10/07 13:35:54;;;;;;;2.50;2.17;;;;;;;;;;5059044;28;20233;-74
2021/10/07 13:38:22;;;;;;;1.87;1.70;;;;;;;;;;5056702;28;20220;-74
2021/10/07 13:40:49;;;;;;;2.30;1.80;;;;;;;;;;5060207;28;20656;-74
2021/10/07 13:43:15;;;;;;;5.20;1.87;;;;;;;;;;5056752;28;20216;-74
2021/10/07 13:45:42;;;;;;;2.27;1.70;;;;;;;;;;5056594;28;20216;-74
2021/10/07 13:48:10;;;;;;;4.27;1.80;;;;;;;;;;5060077;28;20556;-74
2021/10/07 13:50:36;;;;;;;1.50;1.40;;;;;;;;;;5056469;28;20228;-74
2021/10/07 13:53:03;;;;;;;1.60;1.50;;;;;;;;;;5058772;28;20269;-74
2021/10/07 13:55:29;;;;;;;5.47;1.87;;;;;;;;;;5060308;28;20208;-74
2021/10/07 13:57:57;;;;;;;5.77;2.77;;;;;;;;;;5057891;28;20232;-74
2021/10/07 14:00:24;;;;;;;3.57;1.77;;;;;;;;;;5055514;28;20223;-73
2021/10/07 14:02:50;;;;;;;3.50;1.93;;;;;;;;;;5055865;28;20297;-73
2021/10/07 14:05:23;;;;;;;2.67;1.53;;;;;;;;;;5059659;28;20239;-73
2021/10/07 14:07:50;;;;;;;2.23;2.10;;;;;;;;;;5057238;28;20284;-73
2021/10/07 14:10:17;;;;;;;2.37;1.73;;;;;;;;;;5058334;28;20265;-73
2021/10/07 14:12:43;;;;;;;17.63;5.63;;;;;;;;;;5058550;28;20244;-73
2021/10/07 14:15:11;;;;;;;10.30;9.30;;;;;;;;;;5057977;28;20306;-73
2021/10/07 14:17:37;;;;;;;9.67;8.87;;;;;;;;;;5058378;28;20271;-73
2021/10/07 14:20:05;;;;;;;9.37;8.67;;;;;;;;;;5057400;28;20239;-73
2021/10/07 14:22:34;;;;;;;10.00;9.20;;;;;;;;;;5059292;28;20220;-75
2021/10/07 14:25:00;;;;;;;12.37;8.60;;;;;;;;;;5057342;28;20688;-75
2021/10/07 14:27:27;;;;;;;10.23;9.33;;;;;;;;;;5058571;28;20288;-75
2021/10/07 14:29:54;;;;;;;9.77;8.70;;;;;;;;;;5054150;28;20839;-73
2021/10/07 14:32:21;;;;;;;11.53;9.03;;;;;;;;;;5054612;28;20224;-73
2021/10/07 14:34:47;;;;;;;9.00;8.07;;;;;;;;;;5056547;28;20222;-73
2021/10/07 14:37:14;;;;;;;11.30;9.80;;;;;;;;;;5053902;28;20234;-73
2021/10/07 14:39:42;;;;;;;13.00;9.73;;;;;;;;;;5053826;28;20222;-72